Ana Sayfa
METAR-TAF:

METAR-TAF

Havaalanları :

Cabo San Lucas, Meksika

Enlem: 22-56-51N, Boylam: 109-56-13W, yükseklik: 210 m

Güncel hava durumu gözlemi

Rapor saat 19:40 UTC de 48 dakika önce yapıldı.
Rüzgar güneybatıdan 10 kt
Sıcaklık 26°C
Nem 42%
Basınç 1017 hPa
Görüş mesafesi: 16.1 km
Açık gökyüzü

METAR: MMSL 131940Z 22010KT 10SM SKC 26/12 A3003

Saat: 13:28 (20:28 UTC)

Tahmin

Rapor saat 16:33 UTC de 3 saat ve 55 dakika önce yapıldı.
Ayın 13'si saat 18 UTC'den ayın 14'si saat 18 UTC'ye kadar geçerli Tahmin
Rüzgar batıdan 10 kt
Görüş mesafesi: 10 km
Açık gökyüzü
Dönüşüyor
ayın 14'si saat 02 UTC'den ayın 14'si saat 03 UTC'ye kadar
Rüzgar kuzeydan kt
Ayın 14'si saat 1500 UTC'den
Rüzgar doğu/güneydoğudan 10 kt
Görüş mesafesi: 10 km
Açık gökyüzü

TAF: MMSL 131633Z 1318/1418 26010KT P6SM SKC BECMG 1402/1403 00000KT FM141500 12010KT P6SM SKC

4.000'den fazla havaalanı için hava durumu gözlemleri ve tahminleri (METAR ve TAF raporları).

Kullanılabilir istasyonlar harita üzerinde sarı ve kırmızı noktalarla gösterilir.

İstasyonun adını görmek için fareyi noktanın üzerinde gezdirin.

Sonrasında hava gözlem ve tahminlerini görmek için tıklayın.

Haritayı değiştirmek için: yaklaştırmak için siyah artı işaretli yeşil düğmeye ve uzaklaştırmak için de eksi işaretli düğmeye hızla tıklayın; bitişik haritalar için yeşil okları kullanın.


METAR-TAF: